createdAt,value
2018-11-03T00:04:44.002Z,88.97
2018-11-03T00:20:19.224Z,94.73
2018-11-03T00:35:54.136Z,95.33
2018-11-03T00:51:28.953Z,92.53
2018-11-03T01:07:03.778Z,92.71
2018-11-03T01:22:37.998Z,94.93
2018-11-03T01:38:12.808Z,96.06
2018-11-03T01:53:47.694Z,100.00
2018-11-03T02:09:23.658Z,100.00
2018-11-03T02:24:57.662Z,100.00
2018-11-03T02:40:32.516Z,100.00
2018-11-03T02:56:06.915Z,100.00
2018-11-03T03:11:41.173Z,100.00
2018-11-03T03:27:15.060Z,100.00
2018-11-03T03:42:49.002Z,100.00
2018-11-03T03:58:22.830Z,100.00
2018-11-03T04:13:57.785Z,100.00
2018-11-03T04:29:31.880Z,100.00
2018-11-03T04:45:06.636Z,100.00
2018-11-03T05:00:40.792Z,100.00
2018-11-03T05:16:14.645Z,100.00
2018-11-03T05:31:48.679Z,100.00
2018-11-03T05:47:23.151Z,100.00
2018-11-03T06:02:57.655Z,95.89
2018-11-03T07:53:39.942Z,56.08
2018-11-03T08:08:44.082Z,56.94
2018-11-03T08:23:48.231Z,56.22
2018-11-03T08:38:52.377Z,51.09
2018-11-03T08:53:56.649Z,52.01
2018-11-03T09:09:00.812Z,45.18
2018-11-03T09:24:07.794Z,41.65
2018-11-03T09:39:12.203Z,40.12
2018-11-03T09:54:16.318Z,40.14
2018-11-03T10:09:20.524Z,38.63
2018-11-03T10:24:24.760Z,36.73
2018-11-03T10:39:28.961Z,37.15
2018-11-03T10:54:33.972Z,36.88
2018-11-03T11:09:44.997Z,36.81
2018-11-03T11:24:49.267Z,36.23
2018-11-03T11:39:53.371Z,33.91
2018-11-03T11:54:57.615Z,32.68
2018-11-03T12:10:01.764Z,30.37
2018-11-03T12:25:06.420Z,29.94
2018-11-03T12:40:13.471Z,25.12
2018-11-03T12:55:17.617Z,24.89
2018-11-03T13:10:22.483Z,25.25
2018-11-03T13:25:26.525Z,25.69
2018-11-03T13:40:30.614Z,26.11
2018-11-03T13:55:34.719Z,27.11
2018-11-03T14:10:39.065Z,27.77
2018-11-03T14:25:43.316Z,29.07
2018-11-03T14:40:47.435Z,29.47
2018-11-03T14:55:52.921Z,30.79
2018-11-03T15:10:57.712Z,33.70
2018-11-03T15:26:01.967Z,35.83
2018-11-03T15:41:06.646Z,39.56
2018-11-03T15:56:10.895Z,43.70
2018-11-03T16:11:15.973Z,50.09
2018-11-03T16:26:20.556Z,53.23
2018-11-03T16:41:26.664Z,53.46
2018-11-03T16:56:31.810Z,52.49
2018-11-03T17:11:36.037Z,52.99
2018-11-03T17:26:40.151Z,51.19
2018-11-03T17:41:44.411Z,50.45
2018-11-03T17:56:48.655Z,51.34
2018-11-03T18:11:53.074Z,55.24
2018-11-03T18:26:57.376Z,57.08
2018-11-03T18:42:01.688Z,54.96
2018-11-03T18:57:05.991Z,62.24
2018-11-03T19:12:10.249Z,65.94
2018-11-03T19:27:14.417Z,69.40
2018-11-03T19:42:18.908Z,72.38
2018-11-03T19:57:23.140Z,75.20
2018-11-03T20:12:27.077Z,72.82
2018-11-03T20:27:31.272Z,73.08
2018-11-03T20:42:35.477Z,78.37
2018-11-03T20:57:39.899Z,78.45
2018-11-03T21:12:44.072Z,84.46
2018-11-03T21:27:48.356Z,86.30
2018-11-03T21:42:52.572Z,88.02
2018-11-03T21:57:56.767Z,84.10
2018-11-03T22:13:01.003Z,82.03
2018-11-03T22:28:05.307Z,86.63
2018-11-03T22:43:09.411Z,85.69
2018-11-03T22:58:13.557Z,85.08
2018-11-03T23:13:17.779Z,87.23
2018-11-03T23:28:21.923Z,86.59
2018-11-03T23:43:26.016Z,85.78
2018-11-03T23:58:30.078Z,84.67
